sensor_id;sensor_type;location;lat;lon;timestamp;temperature;humidity
64549;DHT22;49838;51.798;10.954;2023-04-24T00:00:32;20.00;30.10
64549;DHT22;49838;51.798;10.954;2023-04-24T00:03:01;20.00;30.10
64549;DHT22;49838;51.798;10.954;2023-04-24T00:05:29;19.90;30.40
64549;DHT22;49838;51.798;10.954;2023-04-24T00:07:56;19.90;30.40
64549;DHT22;49838;51.798;10.954;2023-04-24T00:10:23;19.80;30.80
64549;DHT22;49838;51.798;10.954;2023-04-24T00:12:50;19.80;30.60
64549;DHT22;49838;51.798;10.954;2023-04-24T00:15:18;19.70;30.50
64549;DHT22;49838;51.798;10.954;2023-04-24T00:17:45;19.70;30.50
64549;DHT22;49838;51.798;10.954;2023-04-24T00:20:14;19.70;30.40
64549;DHT22;49838;51.798;10.954;2023-04-24T00:22:41;19.70;30.60
64549;DHT22;49838;51.798;10.954;2023-04-24T00:25:08;19.60;30.50
64549;DHT22;49838;51.798;10.954;2023-04-24T00:27:35;19.60;30.40
64549;DHT22;49838;51.798;10.954;2023-04-24T00:30:05;19.60;30.20
64549;DHT22;49838;51.798;10.954;2023-04-24T00:32:33;19.70;30.20
64549;DHT22;49838;51.798;10.954;2023-04-24T00:35:00;19.70;30.20
64549;DHT22;49838;51.798;10.954;2023-04-24T00:37:28;19.70;30.20
64549;DHT22;49838;51.798;10.954;2023-04-24T00:39:56;19.60;30.30
64549;DHT22;49838;51.798;10.954;2023-04-24T00:42:23;19.60;30.40
64549;DHT22;49838;51.798;10.954;2023-04-24T00:44:51;19.50;30.10
64549;DHT22;49838;51.798;10.954;2023-04-24T00:47:18;19.50;30.20
64549;DHT22;49838;51.798;10.954;2023-04-24T00:49:47;19.50;30.40
64549;DHT22;49838;51.798;10.954;2023-04-24T00:52:14;19.40;30.30
64549;DHT22;49838;51.798;10.954;2023-04-24T00:54:44;19.30;30.50
64549;DHT22;49838;51.798;10.954;2023-04-24T00:57:12;19.30;30.70
64549;DHT22;49838;51.798;10.954;2023-04-24T00:59:40;19.20;30.70
64549;DHT22;49838;51.798;10.954;2023-04-24T01:02:08;19.20;30.70
64549;DHT22;49838;51.798;10.954;2023-04-24T01:04:36;19.10;30.70
64549;DHT22;49838;51.798;10.954;2023-04-24T01:07:04;19.10;31.10
64549;DHT22;49838;51.798;10.954;2023-04-24T01:09:35;19.00;31.20
64549;DHT22;49838;51.798;10.954;2023-04-24T01:12:04;18.90;31.30
64549;DHT22;49838;51.798;10.954;2023-04-24T01:14:32;18.90;31.50
64549;DHT22;49838;51.798;10.954;2023-04-24T01:17:00;18.90;31.20
64549;DHT22;49838;51.798;10.954;2023-04-24T01:19:27;18.80;31.40
64549;DHT22;49838;51.798;10.954;2023-04-24T01:21:54;18.80;31.40
64549;DHT22;49838;51.798;10.954;2023-04-24T01:24:26;18.80;31.30
64549;DHT22;49838;51.798;10.954;2023-04-24T01:26:54;18.70;31.40
64549;DHT22;49838;51.798;10.954;2023-04-24T01:29:21;18.70;31.50
64549;DHT22;49838;51.798;10.954;2023-04-24T01:31:48;18.70;31.40
64549;DHT22;49838;51.798;10.954;2023-04-24T01:34:16;18.60;32.00
64549;DHT22;49838;51.798;10.954;2023-04-24T01:36:44;18.60;31.90
64549;DHT22;49838;51.798;10.954;2023-04-24T01:39:12;18.50;31.90
64549;DHT22;49838;51.798;10.954;2023-04-24T01:41:42;18.50;32.00
64549;DHT22;49838;51.798;10.954;2023-04-24T01:44:10;18.50;32.10
64549;DHT22;49838;51.798;10.954;2023-04-24T01:46:37;18.40;32.00
64549;DHT22;49838;51.798;10.954;2023-04-24T01:49:05;18.40;32.30
64549;DHT22;49838;51.798;10.954;2023-04-24T01:51:32;18.40;32.80
64549;DHT22;49838;51.798;10.954;2023-04-24T01:53:59;18.30;32.60
64549;DHT22;49838;51.798;10.954;2023-04-24T01:56:27;18.30;32.90
64549;DHT22;49838;51.798;10.954;2023-04-24T01:58:57;18.30;33.50
64549;DHT22;49838;51.798;10.954;2023-04-24T02:01:25;18.20;33.60
64549;DHT22;49838;51.798;10.954;2023-04-24T02:03:52;18.20;33.50
64549;DHT22;49838;51.798;10.954;2023-04-24T02:06:20;18.10;33.50
64549;DHT22;49838;51.798;10.954;2023-04-24T02:08:48;18.10;34.30
64549;DHT22;49838;51.798;10.954;2023-04-24T02:11:15;18.10;34.00
64549;DHT22;49838;51.798;10.954;2023-04-24T02:13:42;18.10;34.10
64549;DHT22;49838;51.798;10.954;2023-04-24T02:16:11;18.10;34.60
64549;DHT22;49838;51.798;10.954;2023-04-24T02:18:38;18.00;34.40
64549;DHT22;49838;51.798;10.954;2023-04-24T02:21:05;18.00;34.40
64549;DHT22;49838;51.798;10.954;2023-04-24T02:23:32;18.00;35.10
64549;DHT22;49838;51.798;10.954;2023-04-24T02:26:00;18.00;34.80
64549;DHT22;49838;51.798;10.954;2023-04-24T02:28:27;18.00;34.90
64549;DHT22;49838;51.798;10.954;2023-04-24T02:30:54;17.90;34.70
64549;DHT22;49838;51.798;10.954;2023-04-24T02:33:23;17.90;34.60
64549;DHT22;49838;51.798;10.954;2023-04-24T02:35:50;17.90;34.50
64549;DHT22;49838;51.798;10.954;2023-04-24T02:38:17;17.90;35.00
64549;DHT22;49838;51.798;10.954;2023-04-24T02:40:45;17.90;34.90
64549;DHT22;49838;51.798;10.954;2023-04-24T02:43:12;17.90;35.60
64549;DHT22;49838;51.798;10.954;2023-04-24T02:45:39;17.80;35.20
64549;DHT22;49838;51.798;10.954;2023-04-24T02:48:06;17.80;35.00
64549;DHT22;49838;51.798;10.954;2023-04-24T02:50:35;17.90;35.40
64549;DHT22;49838;51.798;10.954;2023-04-24T02:53:02;17.80;35.50
64549;DHT22;49838;51.798;10.954;2023-04-24T02:55:29;17.80;35.30
64549;DHT22;49838;51.798;10.954;2023-04-24T02:57:57;17.80;35.80
64549;DHT22;49838;51.798;10.954;2023-04-24T03:00:24;17.80;35.60
64549;DHT22;49838;51.798;10.954;2023-04-24T03:02:51;17.70;35.50
64549;DHT22;49838;51.798;10.954;2023-04-24T03:05:19;17.70;35.40
64549;DHT22;49838;51.798;10.954;2023-04-24T03:07:47;17.60;35.20
64549;DHT22;49838;51.798;10.954;2023-04-24T03:10:15;17.70;35.40
64549;DHT22;49838;51.798;10.954;2023-04-24T03:12:42;17.70;35.70
64549;DHT22;49838;51.798;10.954;2023-04-24T03:15:09;17.70;36.20
64549;DHT22;49838;51.798;10.954;2023-04-24T03:17:36;17.70;36.40
64549;DHT22;49838;51.798;10.954;2023-04-24T03:20:04;17.70;36.40
64549;DHT22;49838;51.798;10.954;2023-04-24T03:22:34;17.70;36.80
64549;DHT22;49838;51.798;10.954;2023-04-24T03:25:03;17.70;36.50
64549;DHT22;49838;51.798;10.954;2023-04-24T03:27:31;17.60;37.00
64549;DHT22;49838;51.798;10.954;2023-04-24T03:29:58;17.60;36.60
64549;DHT22;49838;51.798;10.954;2023-04-24T03:32:26;17.50;36.50
64549;DHT22;49838;51.798;10.954;2023-04-24T03:34:53;17.50;36.20
64549;DHT22;49838;51.798;10.954;2023-04-24T03:37:21;17.50;36.20
64549;DHT22;49838;51.798;10.954;2023-04-24T03:39:48;17.50;36.30
64549;DHT22;49838;51.798;10.954;2023-04-24T03:42:16;17.50;36.20
64549;DHT22;49838;51.798;10.954;2023-04-24T03:44:44;17.50;37.60
64549;DHT22;49838;51.798;10.954;2023-04-24T03:47:11;17.50;36.50
64549;DHT22;49838;51.798;10.954;2023-04-24T03:49:38;17.40;36.40
64549;DHT22;49838;51.798;10.954;2023-04-24T03:52:05;17.40;36.50
64549;DHT22;49838;51.798;10.954;2023-04-24T03:54:33;17.40;36.40
64549;DHT22;49838;51.798;10.954;2023-04-24T03:57:00;17.40;36.60
64549;DHT22;49838;51.798;10.954;2023-04-24T03:59:29;17.40;36.50
64549;DHT22;49838;51.798;10.954;2023-04-24T04:01:56;17.40;36.20
64549;DHT22;49838;51.798;10.954;2023-04-24T04:04:23;17.40;36.20
64549;DHT22;49838;51.798;10.954;2023-04-24T04:06:50;17.40;36.20
64549;DHT22;49838;51.798;10.954;2023-04-24T04:09:19;17.40;36.10
64549;DHT22;49838;51.798;10.954;2023-04-24T04:11:46;17.40;35.90
64549;DHT22;49838;51.798;10.954;2023-04-24T04:14:13;17.40;35.90
64549;DHT22;49838;51.798;10.954;2023-04-24T04:16:42;17.40;35.80
64549;DHT22;49838;51.798;10.954;2023-04-24T04:19:09;17.50;35.90
64549;DHT22;49838;51.798;10.954;2023-04-24T04:21:37;17.60;36.00
64549;DHT22;49838;51.798;10.954;2023-04-24T04:24:04;17.70;35.70
64549;DHT22;49838;51.798;10.954;2023-04-24T04:26:33;17.70;35.50
64549;DHT22;49838;51.798;10.954;2023-04-24T04:29:01;17.70;35.30
64549;DHT22;49838;51.798;10.954;2023-04-24T04:31:29;17.80;35.20
64549;DHT22;49838;51.798;10.954;2023-04-24T04:33:57;17.90;35.00
64549;DHT22;49838;51.798;10.954;2023-04-24T04:36:25;18.10;34.90
64549;DHT22;49838;51.798;10.954;2023-04-24T04:38:52;18.40;35.40
64549;DHT22;49838;51.798;10.954;2023-04-24T04:41:20;18.60;34.70
64549;DHT22;49838;51.798;10.954;2023-04-24T04:43:47;18.90;34.60
64549;DHT22;49838;51.798;10.954;2023-04-24T04:46:14;19.00;34.50
64549;DHT22;49838;51.798;10.954;2023-04-24T04:48:42;18.90;34.40
64549;DHT22;49838;51.798;10.954;2023-04-24T04:51:11;19.00;34.50
64549;DHT22;49838;51.798;10.954;2023-04-24T04:53:38;19.10;34.40
64549;DHT22;49838;51.798;10.954;2023-04-24T04:56:06;19.20;34.40
64549;DHT22;49838;51.798;10.954;2023-04-24T04:58:33;19.10;34.40
64549;DHT22;49838;51.798;10.954;2023-04-24T05:01:00;19.10;34.40
64549;DHT22;49838;51.798;10.954;2023-04-24T05:03:28;19.10;34.50
64549;DHT22;49838;51.798;10.954;2023-04-24T05:05:55;19.00;34.40
64549;DHT22;49838;51.798;10.954;2023-04-24T05:08:24;19.00;34.60
64549;DHT22;49838;51.798;10.954;2023-04-24T05:10:51;19.00;34.60
64549;DHT22;49838;51.798;10.954;2023-04-24T05:13:18;19.00;34.50
64549;DHT22;49838;51.798;10.954;2023-04-24T05:15:45;19.00;34.60
64549;DHT22;49838;51.798;10.954;2023-04-24T05:18:13;19.00;34.80
64549;DHT22;49838;51.798;10.954;2023-04-24T05:20:41;19.00;34.70
64549;DHT22;49838;51.798;10.954;2023-04-24T05:23:09;19.00;34.70
64549;DHT22;49838;51.798;10.954;2023-04-24T05:25:39;19.10;34.70
64549;DHT22;49838;51.798;10.954;2023-04-24T05:28:07;19.20;34.90
64549;DHT22;49838;51.798;10.954;2023-04-24T05:30:34;19.20;35.20
64549;DHT22;49838;51.798;10.954;2023-04-24T05:33:02;19.20;34.90
64549;DHT22;49838;51.798;10.954;2023-04-24T05:35:29;19.40;35.00
64549;DHT22;49838;51.798;10.954;2023-04-24T05:37:56;19.50;35.80
64549;DHT22;49838;51.798;10.954;2023-04-24T05:40:24;19.50;34.90
64549;DHT22;49838;51.798;10.954;2023-04-24T05:42:52;19.60;35.30
64549;DHT22;49838;51.798;10.954;2023-04-24T05:45:20;19.90;35.50
64549;DHT22;49838;51.798;10.954;2023-04-24T05:47:47;20.00;35.10
64549;DHT22;49838;51.798;10.954;2023-04-24T05:50:16;20.40;34.90
64549;DHT22;49838;51.798;10.954;2023-04-24T05:52:43;21.00;35.20
64549;DHT22;49838;51.798;10.954;2023-04-24T05:55:11;21.30;35.10
64549;DHT22;49838;51.798;10.954;2023-04-24T05:57:39;21.20;35.30
64549;DHT22;49838;51.798;10.954;2023-04-24T06:00:08;21.20;35.30
64549;DHT22;49838;51.798;10.954;2023-04-24T06:02:37;21.10;35.40
64549;DHT22;49838;51.798;10.954;2023-04-24T06:05:05;21.00;35.50
64549;DHT22;49838;51.798;10.954;2023-04-24T06:07:34;20.90;35.40
64549;DHT22;49838;51.798;10.954;2023-04-24T06:10:01;20.80;35.60
64549;DHT22;49838;51.798;10.954;2023-04-24T06:12:29;20.70;35.50
64549;DHT22;49838;51.798;10.954;2023-04-24T06:14:56;20.70;36.10
64549;DHT22;49838;51.798;10.954;2023-04-24T06:17:24;20.60;35.40
64549;DHT22;49838;51.798;10.954;2023-04-24T06:19:52;20.60;35.40
64549;DHT22;49838;51.798;10.954;2023-04-24T06:22:19;20.60;35.40
64549;DHT22;49838;51.798;10.954;2023-04-24T06:24:46;20.60;35.20
64549;DHT22;49838;51.798;10.954;2023-04-24T06:27:14;20.70;35.30
64549;DHT22;49838;51.798;10.954;2023-04-24T06:29:41;20.70;35.30
64549;DHT22;49838;51.798;10.954;2023-04-24T06:32:08;20.80;35.30
64549;DHT22;49838;51.798;10.954;2023-04-24T06:34:37;20.80;35.40
64549;DHT22;49838;51.798;10.954;2023-04-24T06:37:04;20.80;35.30
64549;DHT22;49838;51.798;10.954;2023-04-24T06:39:31;20.80;35.20
64549;DHT22;49838;51.798;10.954;2023-04-24T06:41:59;20.80;35.10
64549;DHT22;49838;51.798;10.954;2023-04-24T06:44:26;20.80;35.20
64549;DHT22;49838;51.798;10.954;2023-04-24T06:46:53;20.80;35.00
64549;DHT22;49838;51.798;10.954;2023-04-24T06:49:21;20.80;35.40
64549;DHT22;49838;51.798;10.954;2023-04-24T06:51:49;20.80;35.10
64549;DHT22;49838;51.798;10.954;2023-04-24T06:54:16;20.70;35.00
64549;DHT22;49838;51.798;10.954;2023-04-24T06:56:43;20.70;35.10
64549;DHT22;49838;51.798;10.954;2023-04-24T06:59:13;20.60;35.10
64549;DHT22;49838;51.798;10.954;2023-04-24T07:01:40;20.70;35.20
64549;DHT22;49838;51.798;10.954;2023-04-24T07:04:08;20.70;35.20
64549;DHT22;49838;51.798;10.954;2023-04-24T07:06:35;20.80;35.00
64549;DHT22;49838;51.798;10.954;2023-04-24T07:09:04;20.90;35.20
64549;DHT22;49838;51.798;10.954;2023-04-24T07:11:32;21.20;35.30
64549;DHT22;49838;51.798;10.954;2023-04-24T07:13:59;21.60;35.20
64549;DHT22;49838;51.798;10.954;2023-04-24T07:16:27;22.20;35.30
64549;DHT22;49838;51.798;10.954;2023-04-24T07:18:54;22.40;35.30
64549;DHT22;49838;51.798;10.954;2023-04-24T07:21:22;22.70;35.20
64549;DHT22;49838;51.798;10.954;2023-04-24T07:23:49;23.00;35.40
64549;DHT22;49838;51.798;10.954;2023-04-24T07:26:18;23.60;35.90
64549;DHT22;49838;51.798;10.954;2023-04-24T07:28:46;23.90;36.00
64549;DHT22;49838;51.798;10.954;2023-04-24T07:31:13;24.10;35.80
64549;DHT22;49838;51.798;10.954;2023-04-24T07:33:41;24.20;35.60
64549;DHT22;49838;51.798;10.954;2023-04-24T07:36:08;24.00;35.00
64549;DHT22;49838;51.798;10.954;2023-04-24T07:38:41;23.80;34.80
64549;DHT22;49838;51.798;10.954;2023-04-24T07:41:08;23.70;34.80
64549;DHT22;49838;51.798;10.954;2023-04-24T07:43:37;23.80;34.80
64549;DHT22;49838;51.798;10.954;2023-04-24T07:46:04;23.90;34.80
64549;DHT22;49838;51.798;10.954;2023-04-24T07:48:32;23.90;34.80
64549;DHT22;49838;51.798;10.954;2023-04-24T07:50:59;24.20;35.10
64549;DHT22;49838;51.798;10.954;2023-04-24T07:53:26;25.10;35.80
64549;DHT22;49838;51.798;10.954;2023-04-24T07:55:54;25.60;35.60
64549;DHT22;49838;51.798;10.954;2023-04-24T07:58:21;26.00;34.90
64549;DHT22;49838;51.798;10.954;2023-04-24T08:00:50;26.40;34.80
64549;DHT22;49838;51.798;10.954;2023-04-24T08:03:17;27.00;35.00
64549;DHT22;49838;51.798;10.954;2023-04-24T08:05:45;27.30;34.70
64549;DHT22;49838;51.798;10.954;2023-04-24T08:08:13;27.40;34.30
64549;DHT22;49838;51.798;10.954;2023-04-24T08:10:40;27.20;33.70
64549;DHT22;49838;51.798;10.954;2023-04-24T08:13:07;26.90;33.40
64549;DHT22;49838;51.798;10.954;2023-04-24T08:15:37;26.60;33.40
64549;DHT22;49838;51.798;10.954;2023-04-24T08:18:05;26.50;33.10
64549;DHT22;49838;51.798;10.954;2023-04-24T08:20:33;26.60;33.30
64549;DHT22;49838;51.798;10.954;2023-04-24T08:23:02;27.20;33.90
64549;DHT22;49838;51.798;10.954;2023-04-24T08:25:29;27.60;33.50
64549;DHT22;49838;51.798;10.954;2023-04-24T08:27:57;27.60;33.30
64549;DHT22;49838;51.798;10.954;2023-04-24T08:30:24;28.00;33.70
64549;DHT22;49838;51.798;10.954;2023-04-24T08:32:52;28.60;33.90
64549;DHT22;49838;51.798;10.954;2023-04-24T08:35:20;28.90;33.60
64549;DHT22;49838;51.798;10.954;2023-04-24T08:37:48;28.80;32.60
64549;DHT22;49838;51.798;10.954;2023-04-24T08:40:16;28.60;31.60
64549;DHT22;49838;51.798;10.954;2023-04-24T08:42:44;28.20;31.00
64549;DHT22;49838;51.798;10.954;2023-04-24T08:45:12;27.60;30.50
64549;DHT22;49838;51.798;10.954;2023-04-24T08:47:40;27.10;31.00
64549;DHT22;49838;51.798;10.954;2023-04-24T08:50:08;27.20;31.30
64549;DHT22;49838;51.798;10.954;2023-04-24T08:52:37;27.80;32.20
64549;DHT22;49838;51.798;10.954;2023-04-24T08:55:05;28.40;32.60
64549;DHT22;49838;51.798;10.954;2023-04-24T08:57:33;29.00;32.50
64549;DHT22;49838;51.798;10.954;2023-04-24T09:00:02;29.50;32.70
64549;DHT22;49838;51.798;10.954;2023-04-24T09:02:30;30.10;32.70
64549;DHT22;49838;51.798;10.954;2023-04-24T09:05:00;30.50;31.40
64549;DHT22;49838;51.798;10.954;2023-04-24T09:07:28;30.50;30.40
64549;DHT22;49838;51.798;10.954;2023-04-24T09:10:00;30.50;30.00
64549;DHT22;49838;51.798;10.954;2023-04-24T09:12:28;30.50;29.50
64549;DHT22;49838;51.798;10.954;2023-04-24T09:14:56;30.70;29.60
64549;DHT22;49838;51.798;10.954;2023-04-24T09:17:24;31.10;29.80
64549;DHT22;49838;51.798;10.954;2023-04-24T09:19:53;31.50;29.90
64549;DHT22;49838;51.798;10.954;2023-04-24T09:22:20;31.40;28.30
64549;DHT22;49838;51.798;10.954;2023-04-24T09:24:48;31.40;28.20
64549;DHT22;49838;51.798;10.954;2023-04-24T09:27:28;31.70;27.70
64549;DHT22;49838;51.798;10.954;2023-04-24T09:29:56;32.10;27.70
64549;DHT22;49838;51.798;10.954;2023-04-24T09:32:24;32.40;28.10
64549;DHT22;49838;51.798;10.954;2023-04-24T09:35:04;32.70;28.70
64549;DHT22;49838;51.798;10.954;2023-04-24T09:37:35;33.10;28.70
64549;DHT22;49838;51.798;10.954;2023-04-24T09:40:12;33.60;29.30
64549;DHT22;49838;51.798;10.954;2023-04-24T09:42:46;33.90;28.60
64549;DHT22;49838;51.798;10.954;2023-04-24T09:45:18;34.30;28.30
64549;DHT22;49838;51.798;10.954;2023-04-24T09:47:45;34.50;27.50
64549;DHT22;49838;51.798;10.954;2023-04-24T09:50:13;34.80;27.10
64549;DHT22;49838;51.798;10.954;2023-04-24T09:52:42;34.90;26.50
64549;DHT22;49838;51.798;10.954;2023-04-24T09:55:11;34.80;26.50
64549;DHT22;49838;51.798;10.954;2023-04-24T09:57:48;34.50;25.90
64549;DHT22;49838;51.798;10.954;2023-04-24T10:00:23;34.30;26.30
64549;DHT22;49838;51.798;10.954;2023-04-24T10:02:55;33.80;26.40
64549;DHT22;49838;51.798;10.954;2023-04-24T10:05:24;33.60;26.50
64549;DHT22;49838;51.798;10.954;2023-04-24T10:07:57;33.30;25.90
64549;DHT22;49838;51.798;10.954;2023-04-24T10:10:26;33.40;26.20
64549;DHT22;49838;51.798;10.954;2023-04-24T10:12:59;33.80;26.70
64549;DHT22;49838;51.798;10.954;2023-04-24T10:15:27;34.30;26.30
64549;DHT22;49838;51.798;10.954;2023-04-24T10:17:54;34.60;26.30
64549;DHT22;49838;51.798;10.954;2023-04-24T10:20:26;34.90;26.30
64549;DHT22;49838;51.798;10.954;2023-04-24T10:22:55;34.80;25.60
64549;DHT22;49838;51.798;10.954;2023-04-24T10:25:24;34.70;26.10
64549;DHT22;49838;51.798;10.954;2023-04-24T10:27:56;34.30;25.40
64549;DHT22;49838;51.798;10.954;2023-04-24T10:30:26;33.90;25.70
64549;DHT22;49838;51.798;10.954;2023-04-24T10:32:54;33.60;25.40
64549;DHT22;49838;51.798;10.954;2023-04-24T10:35:22;33.30;25.60
64549;DHT22;49838;51.798;10.954;2023-04-24T10:37:54;33.00;25.60
64549;DHT22;49838;51.798;10.954;2023-04-24T10:40:25;32.70;25.40
64549;DHT22;49838;51.798;10.954;2023-04-24T10:42:54;32.40;25.00
64549;DHT22;49838;51.798;10.954;2023-04-24T10:45:24;32.10;25.40
64549;DHT22;49838;51.798;10.954;2023-04-24T10:47:53;31.90;25.10
64549;DHT22;49838;51.798;10.954;2023-04-24T10:50:23;31.30;24.70
64549;DHT22;49838;51.798;10.954;2023-04-24T10:52:51;30.70;24.40
64549;DHT22;49838;51.798;10.954;2023-04-24T10:58:09;30.00;25.00
64549;DHT22;49838;51.798;10.954;2023-04-24T11:00:38;29.60;24.70
64549;DHT22;49838;51.798;10.954;2023-04-24T11:03:07;29.00;24.40
64549;DHT22;49838;51.798;10.954;2023-04-24T11:05:49;28.50;24.40
64549;DHT22;49838;51.798;10.954;2023-04-24T11:08:22;28.30;24.80
64549;DHT22;49838;51.798;10.954;2023-04-24T11:10:55;28.30;24.90
64549;DHT22;49838;51.798;10.954;2023-04-24T11:13:24;28.30;24.90
64549;DHT22;49838;51.798;10.954;2023-04-24T11:18:41;28.20;25.00
64549;DHT22;49838;51.798;10.954;2023-04-24T11:21:12;28.20;24.50
64549;DHT22;49838;51.798;10.954;2023-04-24T11:23:39;28.30;24.70
64549;DHT22;49838;51.798;10.954;2023-04-24T11:26:10;28.30;24.70
64549;DHT22;49838;51.798;10.954;2023-04-24T11:28:43;28.30;25.00
64549;DHT22;49838;51.798;10.954;2023-04-24T11:34:08;28.40;24.60
64549;DHT22;49838;51.798;10.954;2023-04-24T11:36:37;28.50;24.70
64549;DHT22;49838;51.798;10.954;2023-04-24T11:39:05;28.40;24.90
64549;DHT22;49838;51.798;10.954;2023-04-24T11:41:33;28.30;24.90
64549;DHT22;49838;51.798;10.954;2023-04-24T11:44:01;28.20;24.80
64549;DHT22;49838;51.798;10.954;2023-04-24T11:46:30;28.10;24.90
64549;DHT22;49838;51.798;10.954;2023-04-24T11:48:59;28.00;25.00
64549;DHT22;49838;51.798;10.954;2023-04-24T11:51:26;28.00;25.00
64549;DHT22;49838;51.798;10.954;2023-04-24T11:53:54;28.00;25.10
64549;DHT22;49838;51.798;10.954;2023-04-24T11:56:23;27.90;24.90
64549;DHT22;49838;51.798;10.954;2023-04-24T11:58:51;27.80;25.10
64549;DHT22;49838;51.798;10.954;2023-04-24T12:01:19;27.90;25.50
64549;DHT22;49838;51.798;10.954;2023-04-24T12:03:47;27.90;25.00
64549;DHT22;49838;51.798;10.954;2023-04-24T12:06:18;27.70;25.20
64549;DHT22;49838;51.798;10.954;2023-04-24T12:08:46;27.80;25.40
64549;DHT22;49838;51.798;10.954;2023-04-24T12:11:15;27.70;25.50
64549;DHT22;49838;51.798;10.954;2023-04-24T12:13:44;27.50;25.40
64549;DHT22;49838;51.798;10.954;2023-04-24T12:16:12;27.40;25.20
64549;DHT22;49838;51.798;10.954;2023-04-24T12:18:43;27.20;25.20
64549;DHT22;49838;51.798;10.954;2023-04-24T12:21:15;27.10;25.50
64549;DHT22;49838;51.798;10.954;2023-04-24T12:23:45;27.00;25.70
64549;DHT22;49838;51.798;10.954;2023-04-24T12:26:12;26.90;25.70
64549;DHT22;49838;51.798;10.954;2023-04-24T12:28:42;26.90;25.70
64549;DHT22;49838;51.798;10.954;2023-04-24T12:31:09;26.80;25.70
64549;DHT22;49838;51.798;10.954;2023-04-24T12:33:37;26.80;25.70
64549;DHT22;49838;51.798;10.954;2023-04-24T12:36:04;26.70;25.50
64549;DHT22;49838;51.798;10.954;2023-04-24T12:38:33;26.60;25.60
64549;DHT22;49838;51.798;10.954;2023-04-24T12:41:06;26.40;25.50
64549;DHT22;49838;51.798;10.954;2023-04-24T12:43:34;26.10;25.60
64549;DHT22;49838;51.798;10.954;2023-04-24T12:46:03;25.80;25.70
64549;DHT22;49838;51.798;10.954;2023-04-24T12:48:31;25.60;25.90
64549;DHT22;49838;51.798;10.954;2023-04-24T12:50:59;25.30;25.80
64549;DHT22;49838;51.798;10.954;2023-04-24T12:53:29;25.00;25.90
64549;DHT22;49838;51.798;10.954;2023-04-24T12:55:58;24.60;26.60
64549;DHT22;49838;51.798;10.954;2023-04-24T12:58:25;24.30;27.30
64549;DHT22;49838;51.798;10.954;2023-04-24T13:00:52;24.00;27.00
64549;DHT22;49838;51.798;10.954;2023-04-24T13:03:20;23.90;27.50
64549;DHT22;49838;51.798;10.954;2023-04-24T13:05:48;23.70;27.60
64549;DHT22;49838;51.798;10.954;2023-04-24T13:08:15;23.50;27.40
64549;DHT22;49838;51.798;10.954;2023-04-24T13:10:42;23.50;27.60
64549;DHT22;49838;51.798;10.954;2023-04-24T13:13:12;23.70;27.80
64549;DHT22;49838;51.798;10.954;2023-04-24T13:15:39;23.90;27.70
64549;DHT22;49838;51.798;10.954;2023-04-24T13:18:06;23.90;27.60
64549;DHT22;49838;51.798;10.954;2023-04-24T13:20:34;23.80;27.50
64549;DHT22;49838;51.798;10.954;2023-04-24T13:23:02;23.50;27.50
64549;DHT22;49838;51.798;10.954;2023-04-24T13:25:30;23.20;27.90
64549;DHT22;49838;51.798;10.954;2023-04-24T13:28:01;22.80;28.10
64549;DHT22;49838;51.798;10.954;2023-04-24T13:30:30;22.60;28.30
64549;DHT22;49838;51.798;10.954;2023-04-24T13:33:00;22.50;28.20
64549;DHT22;49838;51.798;10.954;2023-04-24T13:35:28;22.40;28.20
64549;DHT22;49838;51.798;10.954;2023-04-24T13:37:57;22.40;28.10
64549;DHT22;49838;51.798;10.954;2023-04-24T13:40:24;22.40;28.20
64549;DHT22;49838;51.798;10.954;2023-04-24T13:42:51;22.50;28.30
64549;DHT22;49838;51.798;10.954;2023-04-24T13:45:22;22.60;28.10
64549;DHT22;49838;51.798;10.954;2023-04-24T13:47:50;22.60;28.00
64549;DHT22;49838;51.798;10.954;2023-04-24T13:50:20;22.70;28.10
64549;DHT22;49838;51.798;10.954;2023-04-24T13:52:51;22.80;28.20
64549;DHT22;49838;51.798;10.954;2023-04-24T13:55:18;22.90;28.20
64549;DHT22;49838;51.798;10.954;2023-04-24T13:57:45;23.00;28.20
64549;DHT22;49838;51.798;10.954;2023-04-24T14:00:13;23.00;28.20
64549;DHT22;49838;51.798;10.954;2023-04-24T14:02:41;22.80;28.10
64549;DHT22;49838;51.798;10.954;2023-04-24T14:05:13;22.60;28.00
64549;DHT22;49838;51.798;10.954;2023-04-24T14:07:41;22.50;28.10
64549;DHT22;49838;51.798;10.954;2023-04-24T14:10:11;22.40;28.10
64549;DHT22;49838;51.798;10.954;2023-04-24T14:12:38;22.30;28.10
64549;DHT22;49838;51.798;10.954;2023-04-24T14:15:06;22.30;28.10
64549;DHT22;49838;51.798;10.954;2023-04-24T14:17:34;22.40;28.20
64549;DHT22;49838;51.798;10.954;2023-04-24T14:20:01;22.40;28.20
64549;DHT22;49838;51.798;10.954;2023-04-24T14:22:31;22.20;28.20
64549;DHT22;49838;51.798;10.954;2023-04-24T14:24:58;22.00;28.10
64549;DHT22;49838;51.798;10.954;2023-04-24T14:27:27;21.90;28.20
64549;DHT22;49838;51.798;10.954;2023-04-24T14:29:56;21.80;28.20
64549;DHT22;49838;51.798;10.954;2023-04-24T14:32:23;21.70;28.30
64549;DHT22;49838;51.798;10.954;2023-04-24T14:34:50;21.70;28.40
64549;DHT22;49838;51.798;10.954;2023-04-24T14:37:22;21.70;28.90
64549;DHT22;49838;51.798;10.954;2023-04-24T14:39:51;21.80;28.60
64549;DHT22;49838;51.798;10.954;2023-04-24T14:42:18;21.80;28.60
64549;DHT22;49838;51.798;10.954;2023-04-24T14:44:45;21.90;28.60
64549;DHT22;49838;51.798;10.954;2023-04-24T14:47:13;22.00;28.60
64549;DHT22;49838;51.798;10.954;2023-04-24T14:49:40;21.90;28.80
64549;DHT22;49838;51.798;10.954;2023-04-24T14:52:11;21.80;29.10
64549;DHT22;49838;51.798;10.954;2023-04-24T14:54:38;21.70;28.90
64549;DHT22;49838;51.798;10.954;2023-04-24T14:57:10;21.60;29.00
64549;DHT22;49838;51.798;10.954;2023-04-24T14:59:37;21.50;29.20
64549;DHT22;49838;51.798;10.954;2023-04-24T15:02:05;21.40;29.10
64549;DHT22;49838;51.798;10.954;2023-04-24T15:04:33;21.30;29.00
64549;DHT22;49838;51.798;10.954;2023-04-24T15:07:00;21.10;29.00
64549;DHT22;49838;51.798;10.954;2023-04-24T15:09:28;21.00;28.90
64549;DHT22;49838;51.798;10.954;2023-04-24T15:11:57;21.00;28.90
64549;DHT22;49838;51.798;10.954;2023-04-24T15:14:28;20.90;29.00
64549;DHT22;49838;51.798;10.954;2023-04-24T15:16:57;20.80;28.90
64549;DHT22;49838;51.798;10.954;2023-04-24T15:19:25;20.70;29.00
64549;DHT22;49838;51.798;10.954;2023-04-24T15:21:55;20.60;29.00
64549;DHT22;49838;51.798;10.954;2023-04-24T15:24:25;20.50;29.00
64549;DHT22;49838;51.798;10.954;2023-04-24T15:26:52;20.50;29.10
64549;DHT22;49838;51.798;10.954;2023-04-24T15:29:22;20.50;29.20